sensor_id;sensor_type;location;lat;lon;timestamp;pressure;altitude;pressure_sealevel;temperature;humidity
41513;BME280;27244;59.940;30.280;2023-02-16T00:01:47;102270.13;;;23.66;28.03
41513;BME280;27244;59.940;30.280;2023-02-16T00:04:17;102263.28;;;23.67;28.02
41513;BME280;27244;59.940;30.280;2023-02-16T00:06:45;102264.47;;;23.66;27.88
41513;BME280;27244;59.940;30.280;2023-02-16T00:09:13;102252.03;;;23.60;27.67
41513;BME280;27244;59.940;30.280;2023-02-16T00:11:40;102261.28;;;23.64;27.71
41513;BME280;27244;59.940;30.280;2023-02-16T00:14:24;102256.03;;;23.63;27.51
41513;BME280;27244;59.940;30.280;2023-02-16T00:16:53;102256.84;;;23.63;27.42
41513;BME280;27244;59.940;30.280;2023-02-16T00:19:23;102246.81;;;23.59;27.55
41513;BME280;27244;59.940;30.280;2023-02-16T00:21:53;102256.84;;;23.63;27.38
41513;BME280;27244;59.940;30.280;2023-02-16T00:24:21;102248.84;;;23.58;27.22
41513;BME280;27244;59.940;30.280;2023-02-16T00:26:48;102252.44;;;23.59;27.21
41513;BME280;27244;59.940;30.280;2023-02-16T00:29:19;102255.66;;;23.64;27.08
41513;BME280;27244;59.940;30.280;2023-02-16T00:31:46;102251.16;;;23.77;27.68
41513;BME280;27244;59.940;30.280;2023-02-16T00:34:27;102245.56;;;23.70;26.93
41513;BME280;27244;59.940;30.280;2023-02-16T00:36:55;102242.78;;;23.63;26.88
41513;BME280;27244;59.940;30.280;2023-02-16T00:39:23;102243.19;;;23.62;26.96
41513;BME280;27244;59.940;30.280;2023-02-16T00:41:52;102243.97;;;23.59;26.88
41513;BME280;27244;59.940;30.280;2023-02-16T00:44:23;102243.97;;;23.59;26.80
41513;BME280;27244;59.940;30.280;2023-02-16T00:46:51;102239.97;;;23.60;26.77
41513;BME280;27244;59.940;30.280;2023-02-16T00:49:20;102236.75;;;23.61;26.56
41513;BME280;27244;59.940;30.280;2023-02-16T00:51:49;102229.50;;;23.57;26.63
41513;BME280;27244;59.940;30.280;2023-02-16T00:54:16;102243.22;;;23.58;26.64
41513;BME280;27244;59.940;30.280;2023-02-16T00:56:44;102246.41;;;23.60;26.52
41513;BME280;27244;59.940;30.280;2023-02-16T00:59:15;102237.97;;;23.60;26.59
41513;BME280;27244;59.940;30.280;2023-02-16T01:01:43;102237.97;;;23.57;26.45
41513;BME280;27244;59.940;30.280;2023-02-16T01:04:16;102237.56;;;23.62;26.34
41513;BME280;27244;59.940;30.280;2023-02-16T01:06:44;102236.34;;;23.59;26.24
41513;BME280;27244;59.940;30.280;2023-02-16T01:09:29;102237.16;;;23.60;26.08
41513;BME280;27244;59.940;30.280;2023-02-16T01:12:16;102240.38;;;23.65;25.99
41513;BME280;27244;59.940;30.280;2023-02-16T01:14:46;102224.25;;;23.59;26.01
41513;BME280;27244;59.940;30.280;2023-02-16T01:17:15;102238.75;;;23.64;26.03
41513;BME280;27244;59.940;30.280;2023-02-16T01:19:42;102233.50;;;23.63;25.91
41513;BME280;27244;59.940;30.280;2023-02-16T01:22:09;102235.56;;;23.62;25.93
41513;BME280;27244;59.940;30.280;2023-02-16T01:24:38;102235.94;;;23.64;25.87
41513;BME280;27244;59.940;30.280;2023-02-16T01:27:05;102241.19;;;23.62;25.87
41513;BME280;27244;59.940;30.280;2023-02-16T01:29:31;102232.72;;;23.62;25.82
41513;BME280;27244;59.940;30.280;2023-02-16T01:31:58;102229.91;;;23.62;25.78
41513;BME280;27244;59.940;30.280;2023-02-16T01:34:25;102224.28;;;23.62;25.78
41513;BME280;27244;59.940;30.280;2023-02-16T01:36:52;102223.06;;;23.60;25.96
41513;BME280;27244;59.940;30.280;2023-02-16T01:39:19;102218.63;;;23.59;25.76
41513;BME280;27244;59.940;30.280;2023-02-16T01:42:02;102219.03;;;23.64;25.75
41513;BME280;27244;59.940;30.280;2023-02-16T01:44:36;102219.03;;;23.61;25.91
41513;BME280;27244;59.940;30.280;2023-02-16T01:47:11;102210.97;;;23.63;25.79
41513;BME280;27244;59.940;30.280;2023-02-16T01:49:42;102221.06;;;23.60;25.76
41513;BME280;27244;59.940;30.280;2023-02-16T01:52:13;102213.41;;;23.61;25.50
41513;BME280;27244;59.940;30.280;2023-02-16T01:54:49;102207.75;;;23.64;25.62
41513;BME280;27244;59.940;30.280;2023-02-16T01:57:29;102202.53;;;23.63;25.68
41513;BME280;27244;59.940;30.280;2023-02-16T02:00:16;102210.19;;;23.66;25.62
41513;BME280;27244;59.940;30.280;2023-02-16T02:02:45;102194.09;;;23.56;25.57
41513;BME280;27244;59.940;30.280;2023-02-16T02:05:21;102198.13;;;23.62;25.62
41513;BME280;27244;59.940;30.280;2023-02-16T02:08:05;102194.50;;;23.61;25.50
41513;BME280;27244;59.940;30.280;2023-02-16T02:10:40;102194.88;;;23.63;25.54
41513;BME280;27244;59.940;30.280;2023-02-16T02:13:17;102196.88;;;23.63;25.40
41513;BME280;27244;59.940;30.280;2023-02-16T02:15:46;102185.63;;;23.59;25.43
41513;BME280;27244;59.940;30.280;2023-02-16T02:18:14;102187.66;;;23.55;25.31
41513;BME280;27244;59.940;30.280;2023-02-16T02:20:51;102192.88;;;23.64;25.46
41513;BME280;27244;59.940;30.280;2023-02-16T02:23:53;102202.13;;;23.64;25.50
41513;BME280;27244;59.940;30.280;2023-02-16T02:26:48;102197.69;;;23.67;25.46
41513;BME280;27244;59.940;30.280;2023-02-16T02:29:49;102188.44;;;23.63;25.55
41513;BME280;27244;59.940;30.280;2023-02-16T02:32:26;102190.88;;;23.57;25.35
41513;BME280;27244;59.940;30.280;2023-02-16T02:35:07;102202.94;;;23.61;25.16
41513;BME280;27244;59.940;30.280;2023-02-16T02:37:45;102201.34;;;23.60;25.41
41513;BME280;27244;59.940;30.280;2023-02-16T02:40:21;102195.69;;;23.60;25.39
41513;BME280;27244;59.940;30.280;2023-02-16T02:43:02;102181.63;;;23.57;25.36
41513;BME280;27244;59.940;30.280;2023-02-16T02:45:33;102188.44;;;23.59;25.10
41513;BME280;27244;59.940;30.280;2023-02-16T02:48:01;102193.25;;;23.73;25.54
41513;BME280;27244;59.940;30.280;2023-02-16T02:50:38;102166.78;;;23.49;25.09
41513;BME280;27244;59.940;30.280;2023-02-16T02:53:11;102188.88;;;23.61;24.94
41513;BME280;27244;59.940;30.280;2023-02-16T02:55:39;102192.44;;;23.72;25.51
41513;BME280;27244;59.940;30.280;2023-02-16T02:58:32;102190.88;;;23.61;25.02
41513;BME280;27244;59.940;30.280;2023-02-16T03:01:24;102186.47;;;23.56;25.08
41513;BME280;27244;59.940;30.280;2023-02-16T03:03:55;102191.69;;;23.58;25.24
41513;BME280;27244;59.940;30.280;2023-02-16T03:06:25;102181.25;;;23.55;25.04
41513;BME280;27244;59.940;30.280;2023-02-16T03:08:56;102181.25;;;23.55;24.94
41513;BME280;27244;59.940;30.280;2023-02-16T03:11:26;102179.22;;;23.55;24.98
41513;BME280;27244;59.940;30.280;2023-02-16T03:14:17;102171.16;;;23.57;25.03
41513;BME280;27244;59.940;30.280;2023-02-16T03:16:49;102165.94;;;23.56;24.91
41513;BME280;27244;59.940;30.280;2023-02-16T03:19:35;102155.50;;;23.52;25.08
41513;BME280;27244;59.940;30.280;2023-02-16T03:22:21;102157.09;;;23.53;24.85
41513;BME280;27244;59.940;30.280;2023-02-16T03:25:05;102145.44;;;23.48;24.88
41513;BME280;27244;59.940;30.280;2023-02-16T03:27:50;102156.28;;;23.53;24.93
41513;BME280;27244;59.940;30.280;2023-02-16T03:30:36;102153.09;;;23.55;24.93
41513;BME280;27244;59.940;30.280;2023-02-16T03:33:03;102154.28;;;23.53;24.93
41513;BME280;27244;59.940;30.280;2023-02-16T03:35:30;102146.22;;;23.52;25.00
41513;BME280;27244;59.940;30.280;2023-02-16T03:37:57;102151.47;;;23.53;24.92
41513;BME280;27244;59.940;30.280;2023-02-16T03:40:25;102139.41;;;23.53;24.92
41513;BME280;27244;59.940;30.280;2023-02-16T03:42:55;102136.59;;;23.53;24.83
41513;BME280;27244;59.940;30.280;2023-02-16T03:45:23;102132.56;;;23.54;24.74
41513;BME280;27244;59.940;30.280;2023-02-16T03:47:52;102132.56;;;23.54;24.74
41513;BME280;27244;59.940;30.280;2023-02-16T03:50:19;102130.56;;;23.55;24.74
41513;BME280;27244;59.940;30.280;2023-02-16T03:52:46;102131.31;;;23.55;24.79
41513;BME280;27244;59.940;30.280;2023-02-16T03:55:13;102122.50;;;23.53;24.88
41513;BME280;27244;59.940;30.280;2023-02-16T03:57:40;102129.75;;;23.54;24.87
41513;BME280;27244;59.940;30.280;2023-02-16T04:00:08;102122.50;;;23.53;24.89
41513;BME280;27244;59.940;30.280;2023-02-16T04:02:42;102120.88;;;23.52;24.65
41513;BME280;27244;59.940;30.280;2023-02-16T04:05:10;102124.50;;;23.56;24.60
41513;BME280;27244;59.940;30.280;2023-02-16T04:07:37;102116.47;;;23.55;24.63
41513;BME280;27244;59.940;30.280;2023-02-16T04:10:05;102121.28;;;23.54;24.63
41513;BME280;27244;59.940;30.280;2023-02-16T04:12:32;102110.44;;;23.49;24.52
41513;BME280;27244;59.940;30.280;2023-02-16T04:15:01;102126.13;;;23.53;24.53
41513;BME280;27244;59.940;30.280;2023-02-16T04:17:28;102114.03;;;23.53;24.64
41513;BME280;27244;59.940;30.280;2023-02-16T04:19:55;102120.88;;;23.52;24.64
41513;BME280;27244;59.940;30.280;2023-02-16T04:22:23;102123.31;;;23.53;24.56
41513;BME280;27244;59.940;30.280;2023-02-16T04:24:50;102120.50;;;23.50;24.75
41513;BME280;27244;59.940;30.280;2023-02-16T04:27:17;102115.25;;;23.52;24.74
41513;BME280;27244;59.940;30.280;2023-02-16T04:29:44;102108.47;;;23.46;24.64
41513;BME280;27244;59.940;30.280;2023-02-16T04:32:11;102109.63;;;23.48;24.83
41513;BME280;27244;59.940;30.280;2023-02-16T04:34:38;102106.81;;;23.52;24.92
41513;BME280;27244;59.940;30.280;2023-02-16T04:37:05;102103.19;;;23.51;25.15
41513;BME280;27244;59.940;30.280;2023-02-16T04:39:33;102104.38;;;23.58;25.11
41513;BME280;27244;59.940;30.280;2023-02-16T04:42:00;102098.31;;;23.59;25.56
41513;BME280;27244;59.940;30.280;2023-02-16T04:44:27;102107.16;;;23.61;25.73
41513;BME280;27244;59.940;30.280;2023-02-16T04:46:54;102111.59;;;23.66;25.72
41513;BME280;27244;59.940;30.280;2023-02-16T04:49:21;102096.25;;;23.67;25.87
41513;BME280;27244;59.940;30.280;2023-02-16T04:51:48;102110.72;;;23.72;26.01
41513;BME280;27244;59.940;30.280;2023-02-16T04:54:15;102110.72;;;23.72;26.04
41513;BME280;27244;59.940;30.280;2023-02-16T04:56:44;102098.25;;;23.70;26.34
41513;BME280;27244;59.940;30.280;2023-02-16T04:59:12;102109.44;;;23.80;27.32
41513;BME280;27244;59.940;30.280;2023-02-16T05:01:40;102100.19;;;23.83;27.42
41513;BME280;27244;59.940;30.280;2023-02-16T05:04:07;102100.19;;;23.83;27.12
41513;BME280;27244;59.940;30.280;2023-02-16T05:06:35;102105.78;;;23.90;26.85
41513;BME280;27244;59.940;30.280;2023-02-16T05:09:03;102100.50;;;23.92;26.88
41513;BME280;27244;59.940;30.280;2023-02-16T05:11:30;102098.50;;;23.93;26.93
41513;BME280;27244;59.940;30.280;2023-02-16T05:14:18;102084.38;;;23.96;26.95
41513;BME280;27244;59.940;30.280;2023-02-16T05:17:03;102094.44;;;23.97;26.98
41513;BME280;27244;59.940;30.280;2023-02-16T05:19:30;102083.59;;;23.92;27.24
41513;BME280;27244;59.940;30.280;2023-02-16T05:21:57;102090.41;;;23.95;27.10
41513;BME280;27244;59.940;30.280;2023-02-16T05:24:24;102091.97;;;24.03;27.18
41513;BME280;27244;59.940;30.280;2023-02-16T05:26:51;102083.94;;;24.01;27.45
41513;BME280;27244;59.940;30.280;2023-02-16T05:29:19;102084.31;;;24.03;27.40
41513;BME280;27244;59.940;30.280;2023-02-16T05:31:46;102079.06;;;24.06;27.52
41513;BME280;27244;59.940;30.280;2023-02-16T05:34:13;102081.91;;;24.02;27.60
41513;BME280;27244;59.940;30.280;2023-02-16T05:36:40;102079.88;;;24.06;27.88
41513;BME280;27244;59.940;30.280;2023-02-16T05:39:07;102087.53;;;24.09;27.73
41513;BME280;27244;59.940;30.280;2023-02-16T05:41:34;102076.69;;;24.04;27.69
41513;BME280;27244;59.940;30.280;2023-02-16T05:44:02;102090.72;;;24.11;27.88
41513;BME280;27244;59.940;30.280;2023-02-16T05:46:33;102083.06;;;24.12;28.08
41513;BME280;27244;59.940;30.280;2023-02-16T05:49:01;102075.44;;;24.09;28.18
41513;BME280;27244;59.940;30.280;2023-02-16T05:51:29;102083.88;;;24.12;27.91
41513;BME280;27244;59.940;30.280;2023-02-16T05:53:56;102078.22;;;24.12;28.06
41513;BME280;27244;59.940;30.280;2023-02-16T05:56:24;102070.16;;;24.11;28.00
41513;BME280;27244;59.940;30.280;2023-02-16T05:58:52;102054.88;;;24.12;27.86
41513;BME280;27244;59.940;30.280;2023-02-16T06:01:19;102071.78;;;24.15;28.10
41513;BME280;27244;59.940;30.280;2023-02-16T06:03:48;102072.16;;;24.17;28.21
41513;BME280;27244;59.940;30.280;2023-02-16T06:06:15;102064.94;;;24.16;28.32
41513;BME280;27244;59.940;30.280;2023-02-16T06:08:42;102061.31;;;24.16;28.28
41513;BME280;27244;59.940;30.280;2023-02-16T06:11:09;102053.66;;;24.13;28.40
41513;BME280;27244;59.940;30.280;2023-02-16T06:13:56;102058.50;;;24.16;28.26
41513;BME280;27244;59.940;30.280;2023-02-16T06:16:24;102056.03;;;24.18;28.36
41513;BME280;27244;59.940;30.280;2023-02-16T06:18:53;102057.66;;;24.19;28.34
41513;BME280;27244;59.940;30.280;2023-02-16T06:21:22;102055.25;;;24.17;28.45
41513;BME280;27244;59.940;30.280;2023-02-16T06:23:49;102044.75;;;24.18;28.41
41513;BME280;27244;59.940;30.280;2023-02-16T06:26:17;102031.91;;;24.13;28.62
41513;BME280;27244;59.940;30.280;2023-02-16T06:28:44;102037.53;;;24.17;28.62
41513;BME280;27244;59.940;30.280;2023-02-16T06:31:10;102041.88;;;24.25;28.66
41513;BME280;27244;59.940;30.280;2023-02-16T06:33:38;102035.84;;;24.26;28.61
41513;BME280;27244;59.940;30.280;2023-02-16T06:36:07;102045.88;;;24.27;28.60
41513;BME280;27244;59.940;30.280;2023-02-16T06:38:34;102039.38;;;24.34;28.84
41513;BME280;27244;59.940;30.280;2023-02-16T06:41:01;102036.94;;;24.36;28.86
41513;BME280;27244;59.940;30.280;2023-02-16T06:43:28;102036.56;;;24.34;29.01
41513;BME280;27244;59.940;30.280;2023-02-16T06:45:55;102026.88;;;24.35;28.71
41513;BME280;27244;59.940;30.280;2023-02-16T06:48:22;102022.06;;;24.32;28.96
41513;BME280;27244;59.940;30.280;2023-02-16T06:50:49;102022.06;;;24.32;28.81
41513;BME280;27244;59.940;30.280;2023-02-16T06:53:17;102028.47;;;24.36;28.79
41513;BME280;27244;59.940;30.280;2023-02-16T06:55:45;102026.84;;;24.38;28.99
41513;BME280;27244;59.940;30.280;2023-02-16T06:58:12;102028.47;;;24.36;28.95
41513;BME280;27244;59.940;30.280;2023-02-16T07:00:39;102018.44;;;24.31;29.15
41513;BME280;27244;59.940;30.280;2023-02-16T07:03:06;102024.00;;;24.38;29.42
41513;BME280;27244;59.940;30.280;2023-02-16T07:05:33;102009.97;;;24.31;29.33
41513;BME280;27244;59.940;30.280;2023-02-16T07:08:00;102017.19;;;24.36;29.50
41513;BME280;27244;59.940;30.280;2023-02-16T07:10:28;102014.38;;;24.36;29.32
41513;BME280;27244;59.940;30.280;2023-02-16T07:12:55;102014.78;;;24.38;29.30
41513;BME280;27244;59.940;30.280;2023-02-16T07:15:22;102016.34;;;24.39;29.37
41513;BME280;27244;59.940;30.280;2023-02-16T07:17:49;102009.16;;;24.34;29.49
41513;BME280;27244;59.940;30.280;2023-02-16T07:20:16;102010.75;;;24.35;29.53
41513;BME280;27244;59.940;30.280;2023-02-16T07:22:43;102013.16;;;24.37;29.49
41513;BME280;27244;59.940;30.280;2023-02-16T07:25:10;102002.66;;;24.41;29.42
41513;BME280;27244;59.940;30.280;2023-02-16T07:27:38;102007.84;;;24.42;29.59
41513;BME280;27244;59.940;30.280;2023-02-16T07:30:07;102001.00;;;24.43;29.56
41513;BME280;27244;59.940;30.280;2023-02-16T07:32:35;102001.84;;;24.40;29.72
41513;BME280;27244;59.940;30.280;2023-02-16T07:35:02;101999.88;;;24.37;29.77
41513;BME280;27244;59.940;30.280;2023-02-16T07:37:29;101998.19;;;24.43;30.00
41513;BME280;27244;59.940;30.280;2023-02-16T07:39:56;102005.00;;;24.46;29.90
41513;BME280;27244;59.940;30.280;2023-02-16T07:42:23;102000.91;;;24.50;29.97
41513;BME280;27244;59.940;30.280;2023-02-16T07:44:52;102000.47;;;24.56;29.74
41513;BME280;27244;59.940;30.280;2023-02-16T07:47:19;102002.50;;;24.55;29.95
41513;BME280;27244;59.940;30.280;2023-02-16T07:49:46;101995.69;;;24.53;30.27
41513;BME280;27244;59.940;30.280;2023-02-16T07:52:13;101993.97;;;24.59;30.25
41513;BME280;27244;59.940;30.280;2023-02-16T07:54:40;102000.38;;;24.63;29.77
41513;BME280;27244;59.940;30.280;2023-02-16T07:57:08;102001.97;;;24.64;29.85
41513;BME280;27244;59.940;30.280;2023-02-16T07:59:35;101999.94;;;24.64;29.85
41513;BME280;27244;59.940;30.280;2023-02-16T08:02:03;102004.38;;;24.65;29.59
41513;BME280;27244;59.940;30.280;2023-02-16T08:04:30;102008.38;;;24.68;29.71
41513;BME280;27244;59.940;30.280;2023-02-16T08:06:57;102003.53;;;24.68;29.82
41513;BME280;27244;59.940;30.280;2023-02-16T08:09:24;102002.72;;;24.68;29.38
41513;BME280;27244;59.940;30.280;2023-02-16T08:11:51;101996.69;;;24.69;29.54
41513;BME280;27244;59.940;30.280;2023-02-16T08:14:18;101995.88;;;24.69;29.46
41513;BME280;27244;59.940;30.280;2023-02-16T08:16:45;101986.69;;;24.61;29.50
41513;BME280;27244;59.940;30.280;2023-02-16T08:19:13;101988.66;;;24.64;29.17
41513;BME280;27244;59.940;30.280;2023-02-16T08:21:40;101995.47;;;24.70;29.05
41513;BME280;27244;59.940;30.280;2023-02-16T08:24:11;101994.66;;;24.70;29.13
41513;BME280;27244;59.940;30.280;2023-02-16T08:26:40;101989.38;;;24.72;29.09
41513;BME280;27244;59.940;30.280;2023-02-16T08:29:09;101994.22;;;24.71;29.08
41513;BME280;27244;59.940;30.280;2023-02-16T08:31:38;101987.75;;;24.74;28.47
41513;BME280;27244;59.940;30.280;2023-02-16T08:34:06;101981.31;;;24.74;28.35
41513;BME280;27244;59.940;30.280;2023-02-16T08:36:36;101974.91;;;24.70;28.08
41513;BME280;27244;59.940;30.280;2023-02-16T08:39:06;101986.16;;;24.73;27.84
41513;BME280;27244;59.940;30.280;2023-02-16T08:41:35;101957.69;;;24.61;28.02
41513;BME280;27244;59.940;30.280;2023-02-16T08:44:03;101978.09;;;24.72;28.04
41513;BME280;27244;59.940;30.280;2023-02-16T08:46:31;101967.25;;;24.70;27.89
41513;BME280;27244;59.940;30.280;2023-02-16T08:48:59;101967.66;;;24.69;27.98
41513;BME280;27244;59.940;30.280;2023-02-16T08:51:29;101967.63;;;24.72;28.16
41513;BME280;27244;59.940;30.280;2023-02-16T08:53:58;101963.19;;;24.71;28.04
41513;BME280;27244;59.940;30.280;2023-02-16T08:56:25;101958.91;;;24.60;28.81
41513;BME280;27244;59.940;30.280;2023-02-16T08:58:54;101955.34;;;24.56;28.73
41513;BME280;27244;59.940;30.280;2023-02-16T09:01:21;101959.00;;;24.53;28.80
41513;BME280;27244;59.940;30.280;2023-02-16T09:03:49;101963.09;;;24.48;28.43
41513;BME280;27244;59.940;30.280;2023-02-16T09:06:17;101966.31;;;24.46;28.51
41513;BME280;27244;59.940;30.280;2023-02-16T09:08:49;101961.88;;;24.45;28.41
41513;BME280;27244;59.940;30.280;2023-02-16T09:11:22;101949.44;;;24.43;28.39
41513;BME280;27244;59.940;30.280;2023-02-16T09:13:50;101956.72;;;24.40;28.39
41513;BME280;27244;59.940;30.280;2023-02-16T09:16:19;101956.31;;;24.38;28.21
41513;BME280;27244;59.940;30.280;2023-02-16T09:18:47;101951.53;;;24.35;28.28
41513;BME280;27244;59.940;30.280;2023-02-16T09:21:17;101948.31;;;24.37;28.06
41513;BME280;27244;59.940;30.280;2023-02-16T09:23:47;101938.28;;;24.32;28.18
41513;BME280;27244;59.940;30.280;2023-02-16T09:26:16;101943.91;;;24.32;28.14
41513;BME280;27244;59.940;30.280;2023-02-16T09:28:45;101944.34;;;24.31;28.09
41513;BME280;27244;59.940;30.280;2023-02-16T09:31:14;101941.13;;;24.29;28.18
41513;BME280;27244;59.940;30.280;2023-02-16T09:33:42;101936.72;;;24.28;28.67
41513;BME280;27244;59.940;30.280;2023-02-16T09:36:11;101935.09;;;24.30;28.75
41513;BME280;27244;59.940;30.280;2023-02-16T09:38:39;101936.72;;;24.28;29.00
41513;BME280;27244;59.940;30.280;2023-02-16T09:41:13;101933.88;;;24.28;28.86
41513;BME280;27244;59.940;30.280;2023-02-16T09:43:48;101938.72;;;24.31;29.10
41513;BME280;27244;59.940;30.280;2023-02-16T09:46:21;101938.72;;;24.27;29.13
41513;BME280;27244;59.940;30.280;2023-02-16T09:48:50;101935.97;;;24.20;29.29
41513;BME280;27244;59.940;30.280;2023-02-16T09:51:20;101925.19;;;24.12;30.13
41513;BME280;27244;59.940;30.280;2023-02-16T09:53:53;101936.78;;;24.21;30.33
41513;BME280;27244;59.940;30.280;2023-02-16T09:56:26;101932.75;;;24.22;29.89
41513;BME280;27244;59.940;30.280;2023-02-16T09:59:00;101917.44;;;24.23;29.64
41513;BME280;27244;59.940;30.280;2023-02-16T10:01:34;101917.44;;;24.23;29.37
41513;BME280;27244;59.940;30.280;2023-02-16T10:04:21;101918.97;;;24.27;29.32
41513;BME280;27244;59.940;30.280;2023-02-16T10:06:58;101915.75;;;24.29;29.19
41513;BME280;27244;59.940;30.280;2023-02-16T10:09:29;101911.81;;;24.23;29.09
41513;BME280;27244;59.940;30.280;2023-02-16T10:12:03;101912.09;;;24.32;28.99
41513;BME280;27244;59.940;30.280;2023-02-16T10:14:34;101892.78;;;24.30;28.72
41513;BME280;27244;59.940;30.280;2023-02-16T10:17:16;101907.69;;;24.31;29.38
41513;BME280;27244;59.940;30.280;2023-02-16T10:19:51;101898.84;;;24.29;29.14
41513;BME280;27244;59.940;30.280;2023-02-16T10:22:26;101899.25;;;24.27;29.33
41513;BME280;27244;59.940;30.280;2023-02-16T10:24:58;101895.22;;;24.28;29.33
41513;BME280;27244;59.940;30.280;2023-02-16T10:27:32;101895.59;;;24.30;29.38
41513;BME280;27244;59.940;30.280;2023-02-16T10:30:11;101890.78;;;24.27;29.17
41513;BME280;27244;59.940;30.280;2023-02-16T10:32:44;101900.44;;;24.30;29.34
41513;BME280;27244;59.940;30.280;2023-02-16T10:35:13;101888.41;;;24.26;29.37
41513;BME280;27244;59.940;30.280;2023-02-16T10:37:50;101889.16;;;24.30;29.33
41513;BME280;27244;59.940;30.280;2023-02-16T10:40:29;101892.38;;;24.28;29.53
41513;BME280;27244;59.940;30.280;2023-02-16T10:43:04;101900.03;;;24.28;29.52
41513;BME280;27244;59.940;30.280;2023-02-16T10:45:37;101880.34;;;24.24;29.35
41513;BME280;27244;59.940;30.280;2023-02-16T10:48:07;101887.59;;;24.25;29.31
41513;BME280;27244;59.940;30.280;2023-02-16T10:50:38;101872.78;;;24.18;29.53
41513;BME280;27244;59.940;30.280;2023-02-16T10:53:08;101880.19;;;24.38;29.19
41513;BME280;27244;59.940;30.280;2023-02-16T10:55:36;101868.31;;;24.20;29.62
41513;BME280;27244;59.940;30.280;2023-02-16T10:58:03;101871.53;;;24.22;29.50
41513;BME280;27244;59.940;30.280;2023-02-16T11:00:47;101874.72;;;24.24;29.55
41513;BME280;27244;59.940;30.280;2023-02-16T11:03:17;101872.38;;;24.19;29.52
41513;BME280;27244;59.940;30.280;2023-02-16T11:05:48;101867.53;;;24.20;29.48
41513;BME280;27244;59.940;30.280;2023-02-16T11:08:16;101870.34;;;24.20;29.73
41513;BME280;27244;59.940;30.280;2023-02-16T11:10:46;101871.94;;;24.21;29.57
41513;BME280;27244;59.940;30.280;2023-02-16T11:13:25;101868.31;;;24.20;29.66
41513;BME280;27244;59.940;30.280;2023-02-16T11:15:57;101859.91;;;24.17;29.62
41513;BME280;27244;59.940;30.280;2023-02-16T11:18:32;101865.44;;;24.24;29.48
41513;BME280;27244;59.940;30.280;2023-02-16T11:21:01;101860.66;;;24.21;29.71
41513;BME280;27244;59.940;30.280;2023-02-16T11:23:30;101863.47;;;24.21;29.62
41513;BME280;27244;59.940;30.280;2023-02-16T11:26:00;101858.66;;;24.21;29.75
41513;BME280;27244;59.940;30.280;2023-02-16T11:28:31;101859.44;;;24.22;29.54
41513;BME280;27244;59.940;30.280;2023-02-16T11:31:04;101859.44;;;24.22;29.79
41513;BME280;27244;59.940;30.280;2023-02-16T11:33:36;101863.88;;;24.23;29.64
41513;BME280;27244;59.940;30.280;2023-02-16T11:36:20;101850.59;;;24.23;29.75
41513;BME280;27244;59.940;30.280;2023-02-16T11:38:59;101849.72;;;24.26;29.71
41513;BME280;27244;59.940;30.280;2023-02-16T11:41:27;101854.63;;;24.22;29.73
41513;BME280;27244;59.940;30.280;2023-02-16T11:43:55;101840.91;;;24.21;29.82
41513;BME280;27244;59.940;30.280;2023-02-16T11:46:23;101852.19;;;24.21;29.75
41513;BME280;27244;59.940;30.280;2023-02-16T11:48:51;101838.94;;;24.18;29.90
41513;BME280;27244;59.940;30.280;2023-02-16T11:51:32;101834.84;;;24.26;29.63
41513;BME280;27244;59.940;30.280;2023-02-16T11:54:02;101842.94;;;24.20;29.64
41513;BME280;27244;59.940;30.280;2023-02-16T11:56:31;101840.50;;;24.22;29.57
41513;BME280;27244;59.940;30.280;2023-02-16T11:59:07;101842.50;;;24.25;29.69
41513;BME280;27244;59.940;30.280;2023-02-16T12:01:58;101830.34;;;24.28;29.70
41513;BME280;27244;59.940;30.280;2023-02-16T12:04:43;101842.06;;;24.27;29.78
41513;BME280;27244;59.940;30.280;2023-02-16T12:07:23;101832.41;;;24.24;29.81
41513;BME280;27244;59.940;30.280;2023-02-16T12:10:02;101825.97;;;24.24;29.69
41513;BME280;27244;59.940;30.280;2023-02-16T12:12:37;101823.59;;;24.22;29.79
41513;BME280;27244;59.940;30.280;2023-02-16T12:15:17;101821.53;;;24.26;29.63
41513;BME280;27244;59.940;30.280;2023-02-16T12:17:57;101823.16;;;24.24;29.80
41513;BME280;27244;59.940;30.280;2023-02-16T12:20:35;101816.31;;;24.25;29.67
41513;BME280;27244;59.940;30.280;2023-02-16T12:23:17;101817.09;;;24.25;29.68
41513;BME280;27244;59.940;30.280;2023-02-16T12:25:52;101815.94;;;24.23;29.67
41513;BME280;27244;59.940;30.280;2023-02-16T12:28:33;101812.38;;;24.19;29.70
41513;BME280;27244;59.940;30.280;2023-02-16T12:31:10;101813.94;;;24.23;29.81
41513;BME280;27244;59.940;30.280;2023-02-16T12:33:49;101812.69;;;24.24;29.79
41513;BME280;27244;59.940;30.280;2023-02-16T12:36:30;101809.44;;;24.26;29.75
41513;BME280;27244;59.940;30.280;2023-02-16T12:39:04;101818.75;;;24.23;29.89
41513;BME280;27244;59.940;30.280;2023-02-16T12:41:46;101807.91;;;24.21;29.82
41513;BME280;27244;59.940;30.280;2023-02-16T12:44:19;101811.47;;;24.25;29.94
41513;BME280;27244;59.940;30.280;2023-02-16T12:46:55;101813.47;;;24.25;29.87
41513;BME280;27244;59.940;30.280;2023-02-16T12:49:31;101790.63;;;24.19;29.88
41513;BME280;27244;59.940;30.280;2023-02-16T12:52:03;101799.03;;;24.23;30.02
41513;BME280;27244;59.940;30.280;2023-02-16T12:54:35;101797.22;;;24.36;29.69
41513;BME280;27244;59.940;30.280;2023-02-16T12:57:09;101795.72;;;24.28;29.90
41513;BME280;27244;59.940;30.280;2023-02-16T12:59:40;101789.31;;;24.24;29.76
41513;BME280;27244;59.940;30.280;2023-02-16T13:02:17;101788.09;;;24.25;29.61